Time;durP1;ratioP1;P1;durP2;ratioP2;P2;SDS_P1;SDS_P2;PMS_P1;PMS_P2;Temp;Humidity;BMP_temperature;BMP_pressure;BME280_temperature;BME280_humidity;BME280_pressure;Samples;Min_cycle;Max_cycle;Signal;HPM_P1;HPM_P2
2023/10/08 00:00:43;;;;;;;6.68;3.15;;;;;;;;;;7366068;19;20566;-67
2023/10/08 00:03:10;;;;;;;6.63;3.40;;;;;;;;;;7364521;19;20011;-67
2023/10/08 00:05:39;;;;;;;8.45;3.45;;;;;;;;;;7387989;19;20020;-67
2023/10/08 00:08:06;;;;;;;8.93;3.17;;;;;;;;;;7366497;19;20744;-67
2023/10/08 00:10:41;;;;;;;6.45;3.40;;;;;;;;;;7366410;19;20010;-67
2023/10/08 00:13:09;;;;;;;7.88;3.55;;;;;;;;;;7364390;19;20082;-67
2023/10/08 00:15:53;;;;;;;8.25;3.50;;;;;;;;;;7366651;19;20031;-67
2023/10/08 00:18:19;;;;;;;8.52;3.40;;;;;;;;;;7369222;19;20457;-67
2023/10/08 00:23:30;;;;;;;7.65;3.17;;;;;;;;;;7385596;19;20002;-66
2023/10/08 00:25:55;;;;;;;6.05;3.40;;;;;;;;;;7365968;19;20007;-67
2023/10/08 00:28:21;;;;;;;5.78;3.15;;;;;;;;;;7365830;19;20009;-67
2023/10/08 00:30:47;;;;;;;6.03;3.40;;;;;;;;;;7366921;19;20023;-67
2023/10/08 00:33:14;;;;;;;7.15;3.20;;;;;;;;;;7365009;19;20006;-67
2023/10/08 00:35:41;;;;;;;8.07;3.28;;;;;;;;;;7388546;19;20009;-67
2023/10/08 00:38:20;;;;;;;6.72;3.08;;;;;;;;;;7365643;19;20528;-67
2023/10/08 00:40:48;;;;;;;6.78;3.20;;;;;;;;;;7365867;19;20483;-68
2023/10/08 00:43:36;;;;;;;7.50;3.70;;;;;;;;;;7364735;19;20014;-67
2023/10/08 00:51:47;;;;;;;7.72;3.45;;;;;;;;;;7365872;19;19926;-67
2023/10/08 00:54:17;;;;;;;7.68;3.50;;;;;;;;;;7365526;19;20010;-67
2023/10/08 00:56:49;;;;;;;;;;;;;;;;;;;;;
2023/10/08 00:59:15;;;;;;;8.23;3.30;;;;;;;;;;7364620;19;20018;-67
2023/10/08 01:01:45;;;;;;;8.07;3.05;;;;;;;;;;7364754;19;20007;-67
2023/10/08 01:04:15;;;;;;;9.05;2.95;;;;;;;;;;7363423;19;20031;-67
2023/10/08 01:06:41;;;;;;;5.75;2.75;;;;;;;;;;7367638;19;20018;-67
2023/10/08 01:09:18;;;;;;;7.63;3.65;;;;;;;;;;7372397;19;20394;-67
2023/10/08 01:11:49;;;;;;;7.70;3.20;;;;;;;;;;7391936;19;20011;-67
2023/10/08 01:14:15;;;;;;;7.30;3.42;;;;;;;;;;7371589;19;20025;-67
2023/10/08 01:16:46;;;;;;;7.93;3.10;;;;;;;;;;7372408;19;20022;-67
2023/10/08 01:19:14;;;;;;;8.07;3.60;;;;;;;;;;7369921;19;20017;-67
2023/10/08 01:21:40;;;;;;;9.77;3.13;;;;;;;;;;7370999;19;20392;-67
2023/10/08 01:24:06;;;;;;;4.60;2.85;;;;;;;;;;7370871;19;20023;-66
2023/10/08 01:26:39;;;;;;;6.10;3.10;;;;;;;;;;7393810;19;20003;-66
2023/10/08 01:29:08;;;;;;;7.95;2.90;;;;;;;;;;7371642;19;20021;-67
2023/10/08 01:31:34;;;;;;;8.35;3.38;;;;;;;;;;7370723;19;20015;-67
2023/10/08 01:34:00;;;;;;;6.55;2.80;;;;;;;;;;7370732;19;20006;-67
2023/10/08 01:36:25;;;;;;;5.90;3.00;;;;;;;;;;7372452;19;20003;-67
2023/10/08 01:38:51;;;;;;;9.50;2.83;;;;;;;;;;7371091;19;20030;-67
2023/10/08 01:41:22;;;;;;;7.38;3.47;;;;;;;;;;7393600;19;20019;-68
2023/10/08 01:43:52;;;;;;;4.68;2.70;;;;;;;;;;7369552;19;20045;-67
2023/10/08 01:46:21;;;;;;;8.55;3.05;;;;;;;;;;7375954;19;20123;-67
2023/10/08 01:49:03;;;;;;;8.85;2.95;;;;;;;;;;7375287;19;20021;-67
2023/10/08 01:51:37;;;;;;;5.05;2.78;;;;;;;;;;7372686;19;20077;-67
2023/10/08 01:54:04;;;;;;;5.72;3.17;;;;;;;;;;7365555;19;20007;-67
2023/10/08 01:56:29;;;;;;;6.90;3.58;;;;;;;;;;7391752;19;20002;-67
2023/10/08 01:58:55;;;;;;;9.02;3.30;;;;;;;;;;7370298;19;20048;-67
2023/10/08 02:01:21;;;;;;;4.88;2.67;;;;;;;;;;7370409;19;20043;-67
2023/10/08 02:03:47;;;;;;;7.22;2.88;;;;;;;;;;7368509;19;20011;-67
2023/10/08 02:06:12;;;;;;;7.05;3.42;;;;;;;;;;7371631;19;20104;-67
2023/10/08 02:08:38;;;;;;;6.80;3.00;;;;;;;;;;7392995;19;20687;-67
2023/10/08 02:11:03;;;;;;;5.70;2.83;;;;;;;;;;7369402;19;20003;-67
2023/10/08 02:13:29;;;;;;;8.68;3.45;;;;;;;;;;7368184;19;20074;-67
2023/10/08 02:15:54;;;;;;;5.97;3.13;;;;;;;;;;7370578;19;20010;-67
2023/10/08 02:18:20;;;;;;;7.57;3.20;;;;;;;;;;7370560;19;20341;-67
2023/10/08 02:20:46;;;;;;;8.63;3.53;;;;;;;;;;7374980;19;20456;-66
2023/10/08 02:23:11;;;;;;;11.63;3.55;;;;;;;;;;7388503;19;19998;-67
2023/10/08 02:25:39;;;;;;;6.00;3.15;;;;;;;;;;7367000;19;20003;-67
2023/10/08 02:28:15;;;;;;;6.72;3.25;;;;;;;;;;7368212;19;20499;-67
2023/10/08 02:30:41;;;;;;;5.72;3.05;;;;;;;;;;7370642;19;20078;-67
2023/10/08 02:33:16;;;;;;;8.68;3.55;;;;;;;;;;7368407;19;20015;-68
2023/10/08 02:35:45;;;;;;;9.70;3.30;;;;;;;;;;7393003;19;20329;-67
2023/10/08 02:38:13;;;;;;;10.70;3.40;;;;;;;;;;7369487;19;20491;-68
2023/10/08 02:40:44;;;;;;;7.45;3.35;;;;;;;;;;7368747;19;20023;-67
2023/10/08 02:43:11;;;;;;;7.47;3.47;;;;;;;;;;7367409;19;20006;-67
2023/10/08 02:45:38;;;;;;;9.70;3.20;;;;;;;;;;7369232;19;20010;-67
2023/10/08 02:48:11;;;;;;;7.40;3.28;;;;;;;;;;7369684;19;19999;-67
2023/10/08 02:50:39;;;;;;;7.03;3.33;;;;;;;;;;7391647;19;20027;-67
2023/10/08 02:53:10;;;;;;;7.20;3.45;;;;;;;;;;7366258;19;20082;-68
2023/10/08 02:55:35;;;;;;;8.10;3.47;;;;;;;;;;7368818;19;20492;-67
2023/10/08 02:58:04;;;;;;;7.80;3.65;;;;;;;;;;7365205;19;20082;-67
2023/10/08 03:00:33;;;;;;;9.35;3.60;;;;;;;;;;7365890;19;20007;-67
2023/10/08 03:03:01;;;;;;;9.98;3.78;;;;;;;;;;7364792;19;20010;-68
2023/10/08 03:05:35;;;;;;;7.50;3.53;;;;;;;;;;7390633;19;20022;-67
2023/10/08 03:08:01;;;;;;;7.40;3.33;;;;;;;;;;7368172;19;20014;-66
2023/10/08 03:10:33;;;;;;;7.63;3.42;;;;;;;;;;7368307;19;20015;-66
2023/10/08 03:13:05;;;;;;;7.75;3.33;;;;;;;;;;7366803;19;20010;-66
2023/10/08 03:15:38;;;;;;;7.03;3.15;;;;;;;;;;7372688;19;20013;-66
2023/10/08 03:18:15;;;;;;;5.53;2.95;;;;;;;;;;7370713;19;20003;-66
2023/10/08 03:20:42;;;;;;;;;;;;;;;;;;;;;
2023/10/08 03:23:25;;;;;;;5.28;2.85;;;;;;;;;;7365709;19;20026;-66
2023/10/08 03:26:10;;;;;;;7.22;3.67;;;;;;;;;;7367616;19;20003;-66
2023/10/08 03:28:37;;;;;;;7.82;3.65;;;;;;;;;;7366477;19;20157;-67
2023/10/08 03:31:04;;;;;;;8.70;3.53;;;;;;;;;;7367361;19;20010;-66
2023/10/08 03:33:34;;;;;;;5.95;2.92;;;;;;;;;;7366221;19;19999;-66
2023/10/08 03:36:14;;;;;;;10.05;3.72;;;;;;;;;;7369654;19;20035;-66
2023/10/08 03:38:45;;;;;;;8.55;3.78;;;;;;;;;;7391062;19;20002;-66
2023/10/08 03:41:16;;;;;;;7.13;3.42;;;;;;;;;;7368846;19;20513;-67
2023/10/08 03:43:58;;;;;;;6.95;3.47;;;;;;;;;;7365669;19;20002;-67
2023/10/08 03:46:24;;;;;;;8.07;3.58;;;;;;;;;;7366684;19;20015;-67
2023/10/08 03:48:56;;;;;;;8.52;4.00;;;;;;;;;;7365827;19;20035;-67
2023/10/08 03:51:22;;;;;;;7.30;3.35;;;;;;;;;;7366730;19;20006;-68
2023/10/08 03:56:31;;;;;;;9.35;3.70;;;;;;;;;;7388164;19;20591;-67
2023/10/08 03:59:01;;;;;;;7.30;3.60;;;;;;;;;;7365464;19;20010;-67
2023/10/08 04:01:30;;;;;;;7.50;3.70;;;;;;;;;;7365211;19;20041;-68
2023/10/08 04:03:58;;;;;;;6.63;3.25;;;;;;;;;;7364329;19;20014;-67
2023/10/08 04:06:30;;;;;;;9.85;3.67;;;;;;;;;;7368206;19;20035;-67
2023/10/08 04:09:42;;;;;;;8.95;3.47;;;;;;;;;;7362825;19;20010;-67
2023/10/08 04:11:51;;;;;;;7.15;3.28;;;;;;;;;;7382445;19;20180;-68
2023/10/08 04:14:22;;;;;;;7.53;3.33;;;;;;;;;;7365513;19;20014;-67
2023/10/08 04:16:51;;;;;;;7.40;3.85;;;;;;;;;;7366986;19;20607;-67
2023/10/08 04:19:21;;;;;;;7.70;3.92;;;;;;;;;;7366587;19;20014;-67
2023/10/08 04:21:56;;;;;;;8.05;3.35;;;;;;;;;;7365636;19;20393;-67
2023/10/08 04:24:29;;;;;;;7.47;3.75;;;;;;;;;;7367514;19;20032;-67
2023/10/08 04:26:57;;;;;;;9.23;3.70;;;;;;;;;;7368299;19;20003;-66
2023/10/08 04:29:24;;;;;;;6.60;3.53;;;;;;;;;;7389446;19;20007;-67
2023/10/08 04:32:00;;;;;;;6.05;3.30;;;;;;;;;;7366142;19;20035;-68
2023/10/08 04:34:27;;;;;;;7.68;3.08;;;;;;;;;;7365974;19;20003;-67
2023/10/08 04:36:54;;;;;;;7.95;3.45;;;;;;;;;;7364885;19;20130;-68
2023/10/08 04:39:31;;;;;;;8.13;4.00;;;;;;;;;;7367535;19;20011;-67
2023/10/08 04:41:59;;;;;;;5.25;3.22;;;;;;;;;;7371683;19;20488;-67
2023/10/08 04:44:25;;;;;;;8.02;3.75;;;;;;;;;;7400207;19;20070;-67
2023/10/08 04:46:54;;;;;;;9.30;3.70;;;;;;;;;;7373594;19;20074;-67
2023/10/08 04:49:28;;;;;;;7.80;3.35;;;;;;;;;;7373741;19;20003;-67
2023/10/08 04:51:58;;;;;;;8.07;3.75;;;;;;;;;;7374405;19;20420;-68
2023/10/08 04:54:30;;;;;;;8.50;3.75;;;;;;;;;;7373506;19;20096;-67
2023/10/08 04:56:57;;;;;;;9.70;3.83;;;;;;;;;;7373889;19;20411;-67
2023/10/08 04:59:32;;;;;;;7.13;3.55;;;;;;;;;;7394202;19;20461;-67
2023/10/08 05:05:21;;;;;;;;;;;;;;;;;;7372408;19;20040;-67
2023/10/08 05:12:50;;;;;;;8.10;4.40;;;;;;;;;;7371586;19;20406;-66
2023/10/08 05:20:29;;;;;;;8.63;3.70;;;;;;;;;;7369585;19;20010;-75
2023/10/08 05:23:20;;;;;;;7.38;3.72;;;;;;;;;;7361614;19;20014;-73
2023/10/08 05:28:36;;;;;;;6.80;3.58;;;;;;;;;;7370312;19;20059;-74
2023/10/08 05:36:28;;;;;;;7.20;3.20;;;;;;;;;;7372588;19;20009;-74
2023/10/08 05:39:29;;;;;;;8.60;3.60;;;;;;;;;;7370664;19;20074;-73
2023/10/08 05:41:51;;;;;;;5.80;3.22;;;;;;;;;;7378055;19;20031;-74
2023/10/08 05:59:52;;;;;;;8.15;3.35;;;;;;;;;;7386479;19;20042;-74
2023/10/08 06:05:09;;;;;;;6.45;2.65;;;;;;;;;;7367439;19;20031;-73
2023/10/08 06:13:04;;;;;;;6.70;3.25;;;;;;;;;;7367380;19;20362;-75
2023/10/08 06:15:48;;;;;;;9.13;3.80;;;;;;;;;;7369473;19;20010;-73
2023/10/08 06:18:15;;;;;;;8.13;3.35;;;;;;;;;;7369149;19;20570;-74
2023/10/08 06:20:43;;;;;;;6.68;3.17;;;;;;;;;;7389168;19;20003;-77
2023/10/08 06:23:18;;;;;;;13.10;3.60;;;;;;;;;;7366145;19;20113;-76
2023/10/08 06:25:44;;;;;;;7.60;3.60;;;;;;;;;;7361783;19;20014;-73
2023/10/08 06:28:19;;;;;;;8.80;3.53;;;;;;;;;;7368260;19;20021;-73
2023/10/08 06:30:46;;;;;;;6.57;3.20;;;;;;;;;;7370034;19;20010;-74
2023/10/08 06:33:11;;;;;;;6.82;3.50;;;;;;;;;;7364495;19;20034;-73
2023/10/08 06:35:36;;;;;;;6.65;3.58;;;;;;;;;;7390052;19;20465;-73
2023/10/08 06:38:09;;;;;;;7.25;3.47;;;;;;;;;;7368135;19;20585;-73
2023/10/08 06:43:21;;;;;;;10.35;3.60;;;;;;;;;;7366237;19;20017;-75
2023/10/08 06:45:47;;;;;;;8.00;3.85;;;;;;;;;;7367717;19;20663;-75
2023/10/08 06:48:23;;;;;;;5.97;2.88;;;;;;;;;;7366870;19;20003;-73
2023/10/08 06:50:50;;;;;;;6.85;3.20;;;;;;;;;;7369298;19;20006;-74
2023/10/08 06:53:18;;;;;;;7.00;3.53;;;;;;;;;;7387192;19;20011;-75
2023/10/08 06:55:44;;;;;;;7.38;3.28;;;;;;;;;;7367308;19;20014;-76
2023/10/08 06:58:11;;;;;;;9.10;3.38;;;;;;;;;;7367091;19;20014;-76
2023/10/08 07:00:38;;;;;;;7.25;3.30;;;;;;;;;;7366214;19;20575;-76
2023/10/08 07:03:04;;;;;;;8.27;3.80;;;;;;;;;;7363652;19;20023;-75
2023/10/08 07:05:29;;;;;;;6.57;3.40;;;;;;;;;;7387482;19;20330;-74
2023/10/08 07:07:55;;;;;;;7.65;3.58;;;;;;;;;;7368815;19;20022;-75
2023/10/08 07:10:23;;;;;;;7.88;3.85;;;;;;;;;;7368920;19;20365;-76
2023/10/08 07:12:49;;;;;;;12.48;3.70;;;;;;;;;;7367804;19;20017;-75
2023/10/08 07:15:23;;;;;;;7.35;3.67;;;;;;;;;;7370973;19;20018;-76
2023/10/08 07:17:51;;;;;;;8.80;3.45;;;;;;;;;;7371130;19;20011;-75
2023/10/08 07:20:16;;;;;;;8.85;3.90;;;;;;;;;;7389884;19;19999;-75
2023/10/08 07:22:43;;;;;;;6.70;3.28;;;;;;;;;;7366920;19;20036;-76
2023/10/08 07:25:09;;;;;;;7.70;3.65;;;;;;;;;;7370595;19;20003;-76
2023/10/08 07:27:37;;;;;;;6.28;3.10;;;;;;;;;;7369054;19;20026;-75
2023/10/08 07:30:10;;;;;;;7.60;3.67;;;;;;;;;;7370043;19;20002;-75
2023/10/08 07:32:38;;;;;;;8.00;3.78;;;;;;;;;;7390078;19;20413;-75
2023/10/08 07:35:25;;;;;;;13.10;3.30;;;;;;;;;;7369883;19;20074;-75
2023/10/08 07:37:53;;;;;;;8.30;3.80;;;;;;;;;;7370409;19;20053;-76
2023/10/08 07:40:20;;;;;;;6.78;3.58;;;;;;;;;;7369157;19;20045;-76
2023/10/08 07:42:51;;;;;;;9.68;3.85;;;;;;;;;;7369143;19;20036;-75
2023/10/08 07:45:17;;;;;;;7.40;3.38;;;;;;;;;;7370312;19;20427;-75
2023/10/08 07:47:43;;;;;;;15.88;4.00;;;;;;;;;;7391164;19;20027;-75
2023/10/08 07:50:11;;;;;;;9.88;3.40;;;;;;;;;;7369752;19;20010;-75
2023/10/08 07:52:37;;;;;;;9.20;3.60;;;;;;;;;;7367368;19;20457;-74
2023/10/08 07:55:04;;;;;;;9.10;4.00;;;;;;;;;;7371122;19;20023;-75
2023/10/08 07:57:30;;;;;;;8.65;3.30;;;;;;;;;;7369326;19;20005;-77
2023/10/08 08:00:17;;;;;;;8.15;3.80;;;;;;;;;;7357688;19;20446;-77
2023/10/08 08:02:42;;;;;;;8.60;3.67;;;;;;;;;;7385002;19;20006;-74
2023/10/08 08:05:07;;;;;;;7.00;3.35;;;;;;;;;;7363101;19;20065;-75
2023/10/08 08:07:33;;;;;;;8.43;4.10;;;;;;;;;;7366260;19;20510;-76
2023/10/08 08:09:58;;;;;;;7.30;3.60;;;;;;;;;;7362734;19;20739;-76
2023/10/08 08:12:25;;;;;;;6.13;3.17;;;;;;;;;;7365385;19;20405;-77
2023/10/08 08:14:51;;;;;;;8.18;3.45;;;;;;;;;;7361776;19;20034;-74
2023/10/08 08:17:23;;;;;;;6.95;3.28;;;;;;;;;;7399459;19;20010;-75
2023/10/08 08:19:49;;;;;;;8.07;3.10;;;;;;;;;;7375895;19;20011;-74
2023/10/08 08:22:30;;;;;;;5.60;3.10;;;;;;;;;;7377078;19;20061;-74
2023/10/08 08:25:05;;;;;;;7.78;3.00;;;;;;;;;;7371606;19;20010;-73
2023/10/08 08:27:33;;;;;;;9.32;3.50;;;;;;;;;;7367900;19;20007;-74
2023/10/08 08:30:15;;;;;;;8.65;3.38;;;;;;;;;;7371197;19;20002;-73
2023/10/08 08:32:43;;;;;;;6.35;2.83;;;;;;;;;;7390839;19;20027;-74
2023/10/08 08:35:09;;;;;;;7.60;3.55;;;;;;;;;;7373095;19;19998;-76
2023/10/08 08:37:35;;;;;;;10.27;3.15;;;;;;;;;;7374156;19;20074;-76
2023/10/08 08:40:19;;;;;;;5.47;2.88;;;;;;;;;;7370136;19;20544;-75
2023/10/08 08:42:47;;;;;;;6.80;2.90;;;;;;;;;;7370304;19;20512;-73
2023/10/08 08:45:15;;;;;;;10.65;4.05;;;;;;;;;;7373403;19;20077;-73
2023/10/08 08:47:41;;;;;;;7.70;3.15;;;;;;;;;;7393894;19;20468;-74
2023/10/08 08:50:10;;;;;;;7.47;3.55;;;;;;;;;;7372007;19;20002;-75
2023/10/08 08:52:39;;;;;;;9.88;3.13;;;;;;;;;;7370210;19;20003;-74
2023/10/08 08:55:14;;;;;;;7.05;3.42;;;;;;;;;;7371267;19;20503;-74
2023/10/08 08:57:45;;;;;;;8.48;3.40;;;;;;;;;;7369638;19;20568;-72
2023/10/08 09:00:13;;;;;;;8.30;3.38;;;;;;;;;;7374296;19;20003;-75
2023/10/08 09:02:39;;;;;;;8.18;3.00;;;;;;;;;;7402910;19;19994;-74
2023/10/08 09:05:13;;;;;;;7.80;3.88;;;;;;;;;;7382294;19;20440;-75
2023/10/08 09:07:58;;;;;;;10.27;3.40;;;;;;;;;;7377125;19;20036;-73
2023/10/08 09:10:36;;;;;;;8.95;3.38;;;;;;;;;;7371855;19;20013;-75
2023/10/08 09:13:03;;;;;;;6.65;3.13;;;;;;;;;;7369009;19;19999;-75
2023/10/08 09:15:29;;;;;;;6.35;3.22;;;;;;;;;;7372533;19;20006;-75
2023/10/08 09:17:56;;;;;;;8.55;3.28;;;;;;;;;;7372997;19;20791;-76
2023/10/08 09:20:26;;;;;;;7.88;3.60;;;;;;;;;;7392508;19;19998;-75
2023/10/08 09:23:11;;;;;;;7.72;2.92;;;;;;;;;;7369666;19;20069;-75
2023/10/08 09:25:37;;;;;;;7.93;3.75;;;;;;;;;;7374864;19;20006;-74
2023/10/08 09:28:07;;;;;;;8.98;3.67;;;;;;;;;;7372654;19;20011;-74
2023/10/08 09:30:39;;;;;;;6.97;3.25;;;;;;;;;;7374227;19;20009;-74
2023/10/08 09:33:10;;;;;;;10.05;3.30;;;;;;;;;;7372792;19;20012;-75
2023/10/08 09:35:36;;;;;;;8.45;3.40;;;;;;;;;;7395923;19;20366;-74
2023/10/08 09:38:15;;;;;;;6.85;3.25;;;;;;;;;;7374653;19;20595;-74
2023/10/08 09:40:44;;;;;;;7.70;3.45;;;;;;;;;;7371675;19;20013;-75
2023/10/08 09:43:12;;;;;;;6.45;3.10;;;;;;;;;;7373451;19;20013;-76
2023/10/08 09:45:46;;;;;;;6.63;3.00;;;;;;;;;;7378935;19;20035;-74
2023/10/08 09:48:16;;;;;;;6.03;3.25;;;;;;;;;;7378133;19;20336;-74
2023/10/08 09:50:42;;;;;;;8.55;3.25;;;;;;;;;;7396663;19;20349;-74
2023/10/08 09:53:19;;;;;;;7.80;3.22;;;;;;;;;;7371443;19;20006;-75
2023/10/08 09:55:55;;;;;;;7.85;3.42;;;;;;;;;;7373079;19;20002;-75
2023/10/08 09:58:22;;;;;;;7.50;3.60;;;;;;;;;;7373877;19;20010;-75
2023/10/08 10:00:49;;;;;;;9.15;3.53;;;;;;;;;;7372925;19;20018;-75
2023/10/08 10:03:14;;;;;;;7.63;3.30;;;;;;;;;;7370937;19;20082;-74
2023/10/08 10:05:42;;;;;;;9.23;3.25;;;;;;;;;;7395562;19;20033;-75
2023/10/08 10:08:11;;;;;;;7.75;3.50;;;;;;;;;;7373591;19;20382;-75
2023/10/08 10:10:38;;;;;;;7.07;3.40;;;;;;;;;;7372774;19;20007;-74
2023/10/08 10:13:10;;;;;;;7.88;3.78;;;;;;;;;;7370279;19;20003;-74
2023/10/08 10:15:41;;;;;;;9.40;4.00;;;;;;;;;;7374128;19;20002;-73
2023/10/08 10:18:16;;;;;;;8.65;4.00;;;;;;;;;;7373319;19;20065;-74
2023/10/08 10:20:46;;;;;;;8.75;3.72;;;;;;;;;;7393143;19;20002;-74
2023/10/08 10:23:36;;;;;;;7.35;3.38;;;;;;;;;;7370337;19;20505;-74
2023/10/08 10:26:02;;;;;;;6.97;3.35;;;;;;;;;;7373065;19;20007;-74
2023/10/08 10:28:29;;;;;;;8.40;3.38;;;;;;;;;;7373457;19;20337;-74
2023/10/08 10:30:55;;;;;;;7.85;3.50;;;;;;;;;;7373612;19;20461;-74
2023/10/08 10:33:22;;;;;;;8.82;3.40;;;;;;;;;;7371901;19;20202;-74
2023/10/08 10:35:51;;;;;;;7.38;3.58;;;;;;;;;;7373824;19;20070;-74
2023/10/08 10:38:22;;;;;;;7.32;3.25;;;;;;;;;;7394630;19;20006;-74
2023/10/08 10:40:56;;;;;;;7.07;3.55;;;;;;;;;;7368374;19;20030;-75
2023/10/08 10:43:30;;;;;;;7.93;3.90;;;;;;;;;;7371358;19;20034;-74
2023/10/08 10:45:55;;;;;;;7.22;3.30;;;;;;;;;;7372731;19;20006;-74
2023/10/08 10:53:57;;;;;;;7.55;3.33;;;;;;;;;;7380256;19;20551;-73
2023/10/08 10:56:39;;;;;;;7.55;3.55;;;;;;;;;;7363034;19;20007;-74
2023/10/08 10:59:15;;;;;;;8.70;3.25;;;;;;;;;;7363933;19;20021;-68
2023/10/08 11:02:07;;;;;;;26.80;16.63;;;;;;;;;;7361398;19;20104;-67
2023/10/08 11:04:33;;;;;;;10.25;4.53;;;;;;;;;;7362909;19;20006;-68
2023/10/08 11:07:00;;;;;;;7.95;3.70;;;;;;;;;;7365963;19;20404;-66
2023/10/08 11:09:38;;;;;;;7.47;3.55;;;;;;;;;;7364293;19;20015;-69
2023/10/08 11:12:22;;;;;;;9.15;4.00;;;;;;;;;;7368511;19;20044;-69
2023/10/08 11:14:48;;;;;;;8.68;3.67;;;;;;;;;;7367148;19;20010;-68
2023/10/08 11:17:25;;;;;;;9.20;3.70;;;;;;;;;;7376703;19;20092;-68
2023/10/08 11:19:51;;;;;;;10.13;3.60;;;;;;;;;;7365677;19;20002;-67
2023/10/08 11:22:18;;;;;;;6.53;3.55;;;;;;;;;;7366763;19;20560;-69
2023/10/08 11:24:47;;;;;;;11.45;4.10;;;;;;;;;;7364605;19;20010;-68
2023/10/08 11:27:16;;;;;;;11.57;4.05;;;;;;;;;;7367225;19;20007;-69
2023/10/08 11:29:56;;;;;;;11.75;4.05;;;;;;;;;;7389166;19;20013;-68
2023/10/08 11:32:25;;;;;;;9.67;3.67;;;;;;;;;;7364410;19;20002;-70
2023/10/08 11:34:55;;;;;;;9.57;3.95;;;;;;;;;;7365862;19;20532;-68
2023/10/08 11:37:27;;;;;;;12.43;4.70;;;;;;;;;;7366545;19;19998;-69
2023/10/08 11:39:53;;;;;;;17.00;9.85;;;;;;;;;;7365877;19;19999;-70
2023/10/08 11:44:59;;;;;;;10.13;3.83;;;;;;;;;;7368080;19;20365;-68
2023/10/08 11:47:30;;;;;;;10.07;3.67;;;;;;;;;;7387655;19;20003;-68
2023/10/08 11:50:09;;;;;;;8.32;3.60;;;;;;;;;;7366148;19;20006;-68
2023/10/08 11:52:41;;;;;;;10.40;3.80;;;;;;;;;;7362942;19;20622;-68
2023/10/08 11:55:07;;;;;;;9.45;3.92;;;;;;;;;;7367453;19;20010;-68
2023/10/08 11:57:35;;;;;;;9.45;4.13;;;;;;;;;;7365700;19;20006;-68
2023/10/08 12:00:18;;;;;;;10.57;3.60;;;;;;;;;;7366222;19;20462;-69
2023/10/08 12:02:47;;;;;;;8.23;3.88;;;;;;;;;;7360796;19;20014;-68
2023/10/08 12:05:18;;;;;;;17.20;4.03;;;;;;;;;;7384652;19;20102;-67
2023/10/08 12:07:47;;;;;;;9.82;3.63;;;;;;;;;;7363560;19;20003;-68
2023/10/08 12:10:13;;;;;;;11.07;4.18;;;;;;;;;;7363253;19;20072;-69
2023/10/08 12:12:40;;;;;;;10.27;4.20;;;;;;;;;;7363192;19;20117;-68
2023/10/08 12:15:09;;;;;;;10.65;4.63;;;;;;;;;;7367985;19;20049;-68
2023/10/08 12:17:39;;;;;;;13.98;4.82;;;;;;;;;;7388436;19;20010;-69
2023/10/08 12:20:22;;;;;;;10.90;4.43;;;;;;;;;;7365041;19;20003;-68
2023/10/08 12:22:48;;;;;;;10.23;3.97;;;;;;;;;;7363420;19;20373;-69
2023/10/08 12:25:13;;;;;;;9.73;4.78;;;;;;;;;;7365571;19;20011;-71
2023/10/08 12:27:39;;;;;;;10.82;4.22;;;;;;;;;;7365101;19;20021;-68
2023/10/08 12:30:09;;;;;;;10.15;3.63;;;;;;;;;;7366067;19;20417;-68
2023/10/08 12:32:37;;;;;;;9.25;3.88;;;;;;;;;;7385579;19;20472;-68
2023/10/08 12:35:03;;;;;;;8.93;4.00;;;;;;;;;;7364205;19;20018;-67
2023/10/08 12:37:30;;;;;;;10.68;4.03;;;;;;;;;;7356033;19;20365;-69
2023/10/08 12:40:11;;;;;;;11.98;3.97;;;;;;;;;;7363996;19;20068;-68
2023/10/08 12:42:38;;;;;;;7.50;3.70;;;;;;;;;;7367626;19;20010;-69
2023/10/08 12:45:12;;;;;;;12.18;5.25;;;;;;;;;;7370024;19;20007;-69
2023/10/08 12:47:38;;;;;;;9.20;4.07;;;;;;;;;;7389406;19;20349;-69
2023/10/08 12:50:07;;;;;;;8.35;3.80;;;;;;;;;;7367832;19;20002;-68
2023/10/08 12:52:34;;;;;;;7.95;4.13;;;;;;;;;;7363612;19;20014;-68
2023/10/08 12:55:03;;;;;;;10.15;4.00;;;;;;;;;;7364618;19;19999;-68
2023/10/08 12:57:33;;;;;;;8.38;3.95;;;;;;;;;;7364749;19;20002;-69
2023/10/08 12:59:59;;;;;;;13.48;4.40;;;;;;;;;;7364845;19;20002;-69
2023/10/08 13:02:28;;;;;;;10.20;3.97;;;;;;;;;;7380689;19;20477;-69
2023/10/08 13:04:55;;;;;;;7.63;3.63;;;;;;;;;;7370729;19;20009;-68
2023/10/08 13:07:21;;;;;;;7.72;3.58;;;;;;;;;;7367361;19;20380;-69
2023/10/08 13:09:47;;;;;;;9.23;3.83;;;;;;;;;;7370744;19;20014;-67
2023/10/08 13:12:15;;;;;;;8.18;3.65;;;;;;;;;;7367084;19;20016;-68
2023/10/08 13:14:41;;;;;;;9.93;4.93;;;;;;;;;;7391762;19;20002;-68
2023/10/08 13:17:10;;;;;;;11.13;3.92;;;;;;;;;;7367676;19;20092;-68
2023/10/08 13:19:39;;;;;;;9.02;3.60;;;;;;;;;;7367637;19;20011;-67
2023/10/08 13:22:08;;;;;;;9.07;3.90;;;;;;;;;;7367578;19;20098;-67
2023/10/08 13:24:35;;;;;;;9.32;3.92;;;;;;;;;;7369741;19;20536;-67
2023/10/08 13:27:00;;;;;;;9.35;4.13;;;;;;;;;;7368234;19;20010;-67
2023/10/08 13:29:32;;;;;;;9.40;3.65;;;;;;;;;;7394460;19;20353;-66
2023/10/08 13:31:58;;;;;;;11.68;4.05;;;;;;;;;;7369382;19;20011;-66
2023/10/08 13:34:23;;;;;;;12.50;4.32;;;;;;;;;;7370464;19;20458;-66
2023/10/08 13:36:49;;;;;;;7.80;3.70;;;;;;;;;;7371156;19;20017;-65
2023/10/08 13:39:21;;;;;;;10.07;3.90;;;;;;;;;;7370995;19;20017;-66
2023/10/08 13:41:47;;;;;;;9.52;3.70;;;;;;;;;;7372461;19;20082;-66
2023/10/08 13:44:14;;;;;;;9.93;3.97;;;;;;;;;;7389470;19;20520;-67
2023/10/08 13:46:43;;;;;;;11.02;4.28;;;;;;;;;;7370755;19;20006;-67
2023/10/08 13:49:10;;;;;;;10.23;3.78;;;;;;;;;;7368178;19;20488;-66
2023/10/08 13:51:37;;;;;;;7.72;3.70;;;;;;;;;;7368942;19;20013;-67
2023/10/08 13:54:06;;;;;;;11.05;4.40;;;;;;;;;;7368460;19;20010;-66
2023/10/08 13:56:32;;;;;;;10.57;3.72;;;;;;;;;;7393174;19;20481;-65
2023/10/08 13:59:06;;;;;;;8.68;3.72;;;;;;;;;;7368993;19;20014;-67
2023/10/08 14:01:34;;;;;;;7.88;3.50;;;;;;;;;;7370322;19;20015;-67
2023/10/08 14:04:05;;;;;;;9.48;3.65;;;;;;;;;;7366574;19;20014;-67
2023/10/08 14:06:32;;;;;;;10.57;3.97;;;;;;;;;;7358272;19;20013;-62
2023/10/08 14:08:57;;;;;;;9.40;4.00;;;;;;;;;;7368385;19;20512;-63
2023/10/08 14:11:29;;;;;;;12.32;3.70;;;;;;;;;;7389934;19;20029;-64
2023/10/08 14:14:01;;;;;;;9.05;3.88;;;;;;;;;;7366397;19;20435;-64
2023/10/08 14:16:28;;;;;;;12.23;4.32;;;;;;;;;;7369698;19;20066;-64
2023/10/08 14:18:55;;;;;;;8.77;3.63;;;;;;;;;;7367773;19;20002;-65
2023/10/08 14:21:24;;;;;;;9.73;4.13;;;;;;;;;;7366388;19;20030;-65
2023/10/08 14:23:52;;;;;;;8.60;4.32;;;;;;;;;;7358288;19;20007;-65
2023/10/08 14:26:21;;;;;;;8.90;3.58;;;;;;;;;;7388034;19;20003;-64
2023/10/08 14:28:54;;;;;;;9.68;3.80;;;;;;;;;;7367941;19;20010;-63
2023/10/08 14:31:22;;;;;;;8.75;3.22;;;;;;;;;;7368817;19;20010;-64
2023/10/08 14:34:19;;;;;;;10.57;3.88;;;;;;;;;;7365632;19;20019;-65
2023/10/08 14:45:02;;;;;;;11.45;3.80;;;;;;;;;;7367596;19;20028;-65
2023/10/08 14:47:28;;;;;;;7.85;3.40;;;;;;;;;;7390339;19;20125;-65
2023/10/08 14:49:53;;;;;;;7.35;3.97;;;;;;;;;;7367706;19;20111;-65
2023/10/08 14:52:19;;;;;;;11.77;4.07;;;;;;;;;;7365750;19;20022;-64
2023/10/08 14:54:45;;;;;;;8.68;3.60;;;;;;;;;;7368178;19;20003;-63
2023/10/08 14:57:14;;;;;;;8.45;3.75;;;;;;;;;;7367373;19;20006;-64
2023/10/08 14:59:41;;;;;;;8.43;3.88;;;;;;;;;;7389532;19;20002;-64
2023/10/08 15:02:07;;;;;;;11.48;4.13;;;;;;;;;;7365075;19;20010;-64
2023/10/08 15:04:35;;;;;;;8.88;3.78;;;;;;;;;;7366743;19;20006;-63
2023/10/08 15:07:01;;;;;;;7.68;3.55;;;;;;;;;;7364997;19;20378;-63
2023/10/08 15:09:26;;;;;;;9.63;3.90;;;;;;;;;;7367437;19;20039;-64
2023/10/08 15:11:52;;;;;;;11.50;3.70;;;;;;;;;;7364615;19;20600;-65
2023/10/08 15:14:26;;;;;;;10.00;3.53;;;;;;;;;;7387323;19;19995;-65
2023/10/08 15:16:55;;;;;;;10.73;4.00;;;;;;;;;;7367339;19;20010;-65
2023/10/08 15:19:21;;;;;;;7.32;3.65;;;;;;;;;;7366167;19;20002;-65
2023/10/08 15:21:51;;;;;;;10.75;3.42;;;;;;;;;;7365354;19;20044;-64
2023/10/08 15:24:23;;;;;;;11.40;4.05;;;;;;;;;;7364574;19;20013;-70
2023/10/08 15:33:12;;;;;;;12.23;4.93;;;;;;;;;;7398167;19;20308;-74
2023/10/08 15:35:37;;;;;;;11.98;4.78;;;;;;;;;;7421978;19;20020;-72
2023/10/08 15:38:04;;;;;;;12.10;4.90;;;;;;;;;;7399950;19;20069;-72
2023/10/08 15:40:30;;;;;;;12.15;6.15;;;;;;;;;;7401248;19;20052;-73
2023/10/08 15:42:57;;;;;;;14.63;5.30;;;;;;;;;;7399243;19;20002;-73
2023/10/08 15:45:23;;;;;;;15.15;7.10;;;;;;;;;;7403561;19;20014;-73
2023/10/08 15:47:51;;;;;;;14.40;5.85;;;;;;;;;;7404354;19;20026;-73
2023/10/08 15:50:20;;;;;;;11.25;4.93;;;;;;;;;;7427366;19;20042;-73
2023/10/08 15:52:47;;;;;;;11.27;4.60;;;;;;;;;;7401985;19;20006;-73
2023/10/08 15:55:13;;;;;;;11.70;4.72;;;;;;;;;;7404907;19;20040;-72
2023/10/08 15:57:38;;;;;;;11.35;4.40;;;;;;;;;;7393259;19;20039;-73
2023/10/08 16:00:06;;;;;;;12.02;4.50;;;;;;;;;;7399171;19;20019;-73
2023/10/08 16:02:31;;;;;;;11.90;4.45;;;;;;;;;;7427160;19;19999;-72
2023/10/08 16:04:56;;;;;;;10.48;5.10;;;;;;;;;;7411828;19;20039;-74
2023/10/08 16:07:22;;;;;;;11.13;4.28;;;;;;;;;;7406077;19;20009;-74
2023/10/08 16:09:48;;;;;;;10.13;4.60;;;;;;;;;;7402100;19;20006;-73
2023/10/08 16:12:13;;;;;;;13.50;4.93;;;;;;;;;;7397770;19;20002;-74
2023/10/08 16:14:38;;;;;;;12.48;4.57;;;;;;;;;;7421103;19;20022;-73
2023/10/08 16:17:07;;;;;;;12.60;4.35;;;;;;;;;;7400686;19;20678;-73
2023/10/08 16:19:32;;;;;;;13.15;5.28;;;;;;;;;;7400291;19;20026;-74